createdAt,value
2022-09-25T00:00:07.555Z,11.20
2022-09-25T00:06:18.335Z,11.20
2022-09-25T00:12:20.239Z,11.10
2022-09-25T00:18:43.004Z,11.00
2022-09-25T00:24:45.716Z,10.90
2022-09-25T00:30:47.689Z,11.00
2022-09-25T00:36:49.548Z,11.00
2022-09-25T00:42:51.397Z,10.90
2022-09-25T00:49:17.334Z,11.00
2022-09-25T00:55:24.752Z,11.20
2022-09-25T01:01:26.996Z,11.20
2022-09-25T01:07:29.723Z,11.20
2022-09-25T01:13:31.902Z,11.20
2022-09-25T01:20:24.931Z,11.10
2022-09-25T01:27:03.599Z,11.10
2022-09-25T01:33:18.336Z,11.10
2022-09-25T01:40:01.242Z,11.10
2022-09-25T01:46:18.970Z,11.20
2022-09-25T01:52:27.198Z,11.20
2022-09-25T01:58:55.522Z,11.40
2022-09-25T02:05:01.803Z,11.50
2022-09-25T02:11:06.191Z,11.50
2022-09-25T02:17:13.282Z,11.60
2022-09-25T02:23:24.450Z,11.60
2022-09-25T02:29:26.372Z,11.70
2022-09-25T02:35:28.435Z,11.80
2022-09-25T02:42:19.694Z,11.90
2022-09-25T02:48:54.012Z,12.00
2022-09-25T02:55:19.671Z,12.00
2022-09-25T03:01:26.950Z,12.10
2022-09-25T03:07:29.173Z,12.10
2022-09-25T03:13:34.052Z,12.00
2022-09-25T03:19:36.488Z,12.00
2022-09-25T03:25:38.882Z,12.00
2022-09-25T03:31:42.637Z,12.00
2022-09-25T03:37:44.542Z,12.00
2022-09-25T03:43:51.364Z,12.00
2022-09-25T03:49:53.273Z,12.00
2022-09-25T03:55:55.712Z,12.00
2022-09-25T04:02:10.657Z,12.00
2022-09-25T04:08:34.180Z,12.00
2022-09-25T04:14:47.811Z,12.00
2022-09-25T04:20:49.830Z,12.00
2022-09-25T04:26:53.830Z,12.00
2022-09-25T04:33:14.454Z,12.00
2022-09-25T04:39:20.087Z,12.00
2022-09-25T04:45:22.008Z,12.10
2022-09-25T04:51:23.905Z,12.10
2022-09-25T04:57:53.533Z,12.10
2022-09-25T05:03:53.951Z,12.20
2022-09-25T05:09:56.333Z,12.30
2022-09-25T05:15:58.371Z,12.20
2022-09-25T05:22:00.361Z,12.10
2022-09-25T05:28:03.049Z,12.20
2022-09-25T05:34:05.019Z,12.20
2022-09-25T05:40:08.007Z,12.30
2022-09-25T05:46:11.366Z,12.30
2022-09-25T05:52:13.322Z,12.40
2022-09-25T05:58:15.276Z,12.40
2022-09-25T06:04:17.173Z,12.50
2022-09-25T06:10:19.187Z,12.50
2022-09-25T06:16:21.180Z,12.50
2022-09-25T06:22:23.140Z,12.50
2022-09-25T06:28:25.083Z,12.50
2022-09-25T06:34:31.001Z,12.50
2022-09-25T06:40:41.486Z,12.50
2022-09-25T06:46:51.027Z,12.50
2022-09-25T06:53:03.923Z,12.60
2022-09-25T06:59:05.919Z,12.60
2022-09-25T07:05:08.814Z,12.60
2022-09-25T07:11:24.639Z,12.60
2022-09-25T07:17:26.540Z,12.60
2022-09-25T07:23:28.815Z,12.60
2022-09-25T07:29:31.458Z,12.60
2022-09-25T07:35:37.554Z,12.70
2022-09-25T07:41:39.935Z,12.80
2022-09-25T07:47:41.938Z,13.00
2022-09-25T07:53:44.249Z,13.00
2022-09-25T07:59:47.100Z,13.00
2022-09-25T08:05:48.984Z,13.00
2022-09-25T08:11:51.776Z,13.00
2022-09-25T08:17:53.777Z,13.10
2022-09-25T08:23:56.521Z,13.20
2022-09-25T08:29:58.865Z,13.30
2022-09-25T08:36:04.406Z,13.50
2022-09-25T08:42:06.575Z,13.70
2022-09-25T08:48:38.085Z,13.50
2022-09-25T08:54:43.401Z,13.50
2022-09-25T09:00:47.759Z,13.40
2022-09-25T09:07:26.259Z,13.50
2022-09-25T09:13:58.367Z,13.50
2022-09-25T09:20:29.746Z,13.60
2022-09-25T09:26:37.382Z,13.60
2022-09-25T09:32:49.641Z,13.80
2022-09-25T09:39:32.968Z,14.00
2022-09-25T09:45:44.309Z,14.10
2022-09-25T09:51:54.088Z,13.90
2022-09-25T09:58:04.978Z,14.00
2022-09-25T10:04:24.248Z,14.30
2022-09-25T10:16:41.623Z,14.80
2022-09-25T10:22:47.142Z,14.70
2022-09-25T10:29:00.390Z,14.60
2022-09-25T10:35:07.775Z,14.50
2022-09-25T10:41:21.333Z,14.60
2022-09-25T10:47:41.552Z,14.60
2022-09-25T10:53:45.036Z,14.60
2022-09-25T10:59:52.313Z,14.40
2022-09-25T11:06:09.200Z,14.50
2022-09-25T11:12:26.539Z,14.70
2022-09-25T11:18:52.234Z,15.40
2022-09-25T11:25:18.490Z,16.30
2022-09-25T11:31:47.629Z,16.80
2022-09-25T11:38:45.894Z,16.80
2022-09-25T11:45:02.320Z,16.60
2022-09-25T11:51:10.078Z,16.10
2022-09-25T11:57:34.236Z,15.60
2022-09-25T12:04:09.203Z,15.30
2022-09-25T12:10:47.358Z,15.20
2022-09-25T12:17:32.480Z,15.50
2022-09-25T12:24:07.776Z,15.80
2022-09-25T12:30:26.884Z,16.00
2022-09-25T12:36:52.393Z,16.20
2022-09-25T12:43:11.261Z,16.20
2022-09-25T12:49:39.044Z,16.30
2022-09-25T12:55:48.462Z,16.50
2022-09-25T13:02:27.252Z,16.80
2022-09-25T13:08:58.215Z,16.80
2022-09-25T13:15:19.076Z,17.00
2022-09-25T13:21:31.429Z,17.20
2022-09-25T13:27:45.770Z,17.30
2022-09-25T13:33:53.568Z,17.60
2022-09-25T13:40:14.859Z,17.80
2022-09-25T13:46:20.236Z,18.30
2022-09-25T13:53:18.755Z,18.40
2022-09-25T13:59:38.183Z,18.60
2022-09-25T14:05:44.458Z,18.40
2022-09-25T14:12:23.866Z,18.70
2022-09-25T14:18:41.946Z,18.60
2022-09-25T14:24:47.531Z,18.30
2022-09-25T14:31:26.905Z,18.70
2022-09-25T14:37:54.076Z,18.70
2022-09-25T14:44:32.573Z,18.60
2022-09-25T14:51:00.207Z,18.20
2022-09-25T14:57:03.912Z,17.80
2022-09-25T15:03:13.447Z,17.70
2022-09-25T15:09:37.893Z,17.70
2022-09-25T15:15:41.087Z,17.60
2022-09-25T15:21:44.240Z,17.70
2022-09-25T15:27:47.355Z,17.80
2022-09-25T15:34:13.001Z,17.80
2022-09-25T15:40:30.863Z,17.80
2022-09-25T15:47:48.129Z,18.00
2022-09-25T15:54:01.372Z,17.90
2022-09-25T16:00:46.209Z,17.80
2022-09-25T16:06:49.914Z,17.50
2022-09-25T16:12:52.326Z,17.20
2022-09-25T16:18:55.889Z,17.10
2022-09-25T16:24:58.064Z,16.90
2022-09-25T16:31:04.783Z,16.80
2022-09-25T16:37:23.841Z,17.20
2022-09-25T16:43:36.214Z,18.00
2022-09-25T16:49:46.599Z,17.40
2022-09-25T16:55:50.944Z,16.70
2022-09-25T17:01:59.784Z,16.30
2022-09-25T17:08:23.870Z,15.80
2022-09-25T17:21:06.848Z,15.00
2022-09-25T17:27:17.979Z,14.60
2022-09-25T17:33:22.511Z,14.40
2022-09-25T17:39:26.978Z,14.20
2022-09-25T17:53:31.943Z,13.80
2022-09-25T17:59:35.134Z,13.70
2022-09-25T18:05:41.531Z,13.70
2022-09-25T18:11:44.172Z,13.70
2022-09-25T18:25:40.115Z,13.80
2022-09-25T18:31:46.505Z,13.60
2022-09-25T18:37:48.694Z,13.60
2022-09-25T18:43:51.350Z,13.40
2022-09-25T18:49:53.692Z,13.30
2022-09-25T18:55:59.654Z,12.90
2022-09-25T19:02:01.880Z,12.60
2022-09-25T19:08:04.954Z,12.40
2022-09-25T19:14:06.798Z,12.20
2022-09-25T19:20:09.488Z,12.00
2022-09-25T19:26:22.166Z,12.00
2022-09-25T19:32:24.842Z,11.80
2022-09-25T19:46:17.475Z,11.80
2022-09-25T19:52:21.312Z,11.50
2022-09-25T19:58:23.751Z,11.40
2022-09-25T20:04:25.969Z,11.30
2022-09-25T20:10:29.623Z,11.20
2022-09-25T20:16:31.915Z,11.10
2022-09-25T20:22:33.930Z,11.00
2022-09-25T20:28:38.024Z,10.80
2022-09-25T20:34:39.921Z,10.70
2022-09-25T20:40:41.946Z,10.60
2022-09-25T20:46:43.948Z,10.50
2022-09-25T20:52:45.877Z,10.60
2022-09-25T20:58:53.130Z,10.70
2022-09-25T21:04:56.804Z,10.70
2022-09-25T21:11:01.777Z,10.60
2022-09-25T21:17:03.901Z,10.60
2022-09-25T21:23:05.973Z,10.60
2022-09-25T21:29:09.734Z,10.60
2022-09-25T21:35:11.687Z,10.50
2022-09-25T21:41:17.289Z,10.30
2022-09-25T21:47:19.855Z,10.20
2022-09-25T21:53:23.437Z,10.00
2022-09-25T21:59:25.631Z,9.90
2022-09-25T22:05:27.551Z,9.80
2022-09-25T22:11:29.886Z,9.70
2022-09-25T22:17:31.804Z,9.60
2022-09-25T22:23:33.695Z,9.60
2022-09-25T22:29:37.367Z,9.30
2022-09-25T22:35:39.613Z,9.30
2022-09-25T22:41:42.139Z,9.20
2022-09-25T22:47:44.029Z,9.10
2022-09-25T22:53:48.186Z,8.90
2022-09-25T22:59:50.140Z,8.90
2022-09-25T23:05:52.089Z,8.80
2022-09-25T23:11:56.480Z,8.80
2022-09-25T23:17:59.137Z,8.90
2022-09-25T23:24:10.435Z,8.90
2022-09-25T23:30:12.599Z,8.80
2022-09-25T23:36:21.580Z,8.80
2022-09-25T23:42:23.533Z,8.70
2022-09-25T23:48:25.507Z,8.70
2022-09-25T23:54:27.876Z,8.50
